createdAt,value
2019-04-06T00:00:03.156Z,98411.88
2019-04-06T00:02:33.251Z,98417.23
2019-04-06T00:05:01.658Z,98410.20
2019-04-06T00:07:30.089Z,98411.18
2019-04-06T00:09:58.623Z,98404.15
2019-04-06T00:12:27.074Z,98408.77
2019-04-06T00:14:55.486Z,98405.23
2019-04-06T00:17:23.961Z,98409.75
2019-04-06T00:19:52.432Z,98399.19
2019-04-06T00:22:20.961Z,98401.86
2019-04-06T00:24:49.400Z,98399.31
2019-04-06T00:27:17.811Z,98402.97
2019-04-06T00:29:46.338Z,98399.44
2019-04-06T00:32:21.920Z,98403.95
2019-04-06T00:34:50.390Z,98412.11
2019-04-06T00:37:18.826Z,98412.94
2019-04-06T00:39:47.247Z,98411.25
2019-04-06T00:42:15.672Z,98399.25
2019-04-06T00:44:44.154Z,98402.53
2019-04-06T00:47:12.594Z,98400.81
2019-04-06T00:49:41.001Z,98396.32
2019-04-06T00:52:09.451Z,98393.77
2019-04-06T00:54:37.860Z,98391.10
2019-04-06T00:57:06.270Z,98394.03
2019-04-06T00:59:34.678Z,98393.08
2019-04-06T01:02:03.263Z,98393.20
2019-04-06T01:04:31.683Z,98392.34
2019-04-06T01:07:00.135Z,98395.14
2019-04-06T01:09:28.538Z,98393.45
2019-04-06T01:11:57.006Z,98392.59
2019-04-06T01:14:25.444Z,98397.94
2019-04-06T01:16:53.962Z,98401.60
2019-04-06T01:19:22.342Z,98399.91
2019-04-06T01:21:50.794Z,98399.91
2019-04-06T01:24:19.198Z,98399.05
2019-04-06T01:26:47.668Z,98400.91
2019-04-06T01:29:16.080Z,98395.68
2019-04-06T01:31:44.543Z,98393.97
2019-04-06T01:34:12.976Z,98393.97
2019-04-06T01:36:41.534Z,98398.48
2019-04-06T01:39:09.942Z,98389.73
2019-04-06T01:41:38.354Z,98393.27
2019-04-06T01:44:06.761Z,98385.37
2019-04-06T01:46:35.169Z,98395.20
2019-04-06T01:49:03.575Z,98394.50
2019-04-06T01:51:31.985Z,98393.64
2019-04-06T01:54:00.400Z,98390.97
2019-04-06T01:56:28.879Z,98404.33
2019-04-06T01:58:57.362Z,98401.78
2019-04-06T02:01:27.431Z,98397.30
2019-04-06T02:03:55.899Z,98395.61
2019-04-06T02:06:24.303Z,98399.27
2019-04-06T02:08:52.777Z,98390.52
2019-04-06T02:11:21.253Z,98385.30
2019-04-06T02:13:49.665Z,98388.83
2019-04-06T02:16:18.092Z,98386.16
2019-04-06T02:18:46.602Z,98383.61
2019-04-06T02:21:15.009Z,98387.14
2019-04-06T02:23:43.421Z,98387.97
2019-04-06T02:26:11.819Z,98384.47
2019-04-06T02:28:40.368Z,98386.29
2019-04-06T02:31:27.098Z,98382.05
2019-04-06T02:33:59.852Z,98381.07
2019-04-06T02:36:29.942Z,98385.71
2019-04-06T02:38:59.998Z,98383.04
2019-04-06T02:41:48.393Z,98383.86
2019-04-06T02:44:16.834Z,98389.34
2019-04-06T02:46:45.310Z,98386.79
2019-04-06T02:49:14.046Z,98377.95
2019-04-06T02:51:42.471Z,98380.63
2019-04-06T02:54:10.904Z,98378.93
2019-04-06T02:56:46.253Z,98382.43
2019-04-06T02:59:09.505Z,98372.73
2019-04-06T03:01:37.905Z,98383.41
2019-04-06T03:04:06.343Z,98381.60
2019-04-06T03:06:34.780Z,98380.75
2019-04-06T03:09:04.896Z,98380.88
2019-04-06T03:11:33.306Z,98386.21
2019-04-06T03:14:01.722Z,98389.87
2019-04-06T03:16:30.742Z,98388.18
2019-04-06T03:18:59.440Z,98389.01
2019-04-06T03:21:27.845Z,98389.01
2019-04-06T03:23:56.261Z,98395.34
2019-04-06T03:26:24.699Z,98395.46
2019-04-06T03:28:53.110Z,98400.80
2019-04-06T03:31:25.539Z,98402.62
2019-04-06T03:33:51.711Z,98404.45
2019-04-06T03:36:20.102Z,98414.28
2019-04-06T03:38:48.510Z,98403.59
2019-04-06T03:41:16.982Z,98399.24
2019-04-06T03:43:45.399Z,98405.28
2019-04-06T03:46:13.804Z,98406.14
2019-04-06T03:48:42.240Z,98404.45
2019-04-06T03:51:10.808Z,98403.59
2019-04-06T03:53:39.269Z,98402.77
2019-04-06T03:56:07.683Z,98406.27
2019-04-06T03:58:36.119Z,98409.06
2019-04-06T04:01:04.572Z,98390.37
2019-04-06T04:03:32.950Z,98390.37
2019-04-06T04:06:01.507Z,98386.99
2019-04-06T04:08:29.944Z,98389.54
2019-04-06T04:10:58.406Z,98389.66
2019-04-06T04:13:26.871Z,98390.49
2019-04-06T04:15:57.190Z,98376.31
2019-04-06T04:18:25.656Z,98379.96
2019-04-06T04:20:54.277Z,98389.66
2019-04-06T04:23:22.701Z,98389.66
2019-04-06T04:25:51.122Z,98395.13
2019-04-06T04:28:19.689Z,98402.16
2019-04-06T04:30:48.119Z,98407.50
2019-04-06T04:33:16.546Z,98401.33
2019-04-06T04:35:44.925Z,98404.00
2019-04-06T04:38:13.341Z,98404.09
2019-04-06T04:40:41.747Z,98404.92
2019-04-06T04:43:10.193Z,98408.58
2019-04-06T04:45:38.702Z,98409.44
2019-04-06T04:48:07.105Z,98413.92
2019-04-06T04:50:35.695Z,98415.73
2019-04-06T04:53:04.158Z,98424.60
2019-04-06T04:55:32.546Z,98422.91
2019-04-06T04:58:00.970Z,98422.91
2019-04-06T05:00:29.349Z,98417.57
2019-04-06T05:02:57.816Z,98413.92
2019-04-06T05:05:26.423Z,98412.23
2019-04-06T05:07:54.937Z,98407.72
2019-04-06T05:10:23.600Z,98407.72
2019-04-06T05:12:52.192Z,98409.69
2019-04-06T05:15:30.021Z,98412.23
2019-04-06T05:17:58.458Z,98415.88
2019-04-06T05:20:27.048Z,98411.38
2019-04-06T05:22:55.453Z,98416.59
2019-04-06T05:25:24.012Z,98420.24
2019-04-06T05:27:53.153Z,98414.90
2019-04-06T05:30:21.909Z,98420.24
2019-04-06T05:32:50.385Z,98418.40
2019-04-06T05:35:18.861Z,98422.05
2019-04-06T05:37:47.270Z,98425.58
2019-04-06T05:40:15.798Z,98425.46
2019-04-06T05:42:44.237Z,98421.93
2019-04-06T05:45:12.745Z,98419.27
2019-04-06T05:47:42.550Z,98428.96
2019-04-06T05:50:11.000Z,98424.52
2019-04-06T05:52:39.408Z,98428.87
2019-04-06T05:55:07.850Z,98430.56
2019-04-06T05:57:37.556Z,98432.27
2019-04-06T06:00:10.482Z,98422.30
2019-04-06T06:02:41.333Z,98423.03
2019-04-06T06:05:08.577Z,98423.86
2019-04-06T06:07:38.437Z,98426.53
2019-04-06T06:10:07.838Z,98422.75
2019-04-06T06:12:36.260Z,98421.92
2019-04-06T06:15:06.747Z,98419.95
2019-04-06T06:17:35.320Z,98424.34
2019-04-06T06:20:05.219Z,98421.67
2019-04-06T06:22:33.626Z,98419.70
2019-04-06T06:25:02.076Z,98423.23
2019-04-06T06:27:30.469Z,98428.45
2019-04-06T06:29:58.940Z,98428.45
2019-04-06T06:32:27.351Z,98425.63
2019-04-06T06:34:56.044Z,98425.51
2019-04-06T06:37:24.486Z,98429.90
2019-04-06T06:39:52.925Z,98427.92
2019-04-06T06:42:21.327Z,98434.95
2019-04-06T06:44:49.924Z,98450.04
2019-04-06T06:47:18.329Z,98451.60
2019-04-06T06:49:46.807Z,98447.08
2019-04-06T06:52:15.216Z,98451.48
2019-04-06T06:54:43.627Z,98461.18
2019-04-06T06:57:12.100Z,98457.52
2019-04-06T06:59:40.512Z,98453.87
2019-04-06T07:02:08.923Z,98462.63
2019-04-06T07:04:37.328Z,98466.98
2019-04-06T07:07:05.742Z,98473.06
2019-04-06T07:09:34.187Z,98469.41
2019-04-06T07:12:02.551Z,98466.60
2019-04-06T07:14:30.955Z,98470.84
2019-04-06T07:16:59.391Z,98468.05
2019-04-06T07:19:27.799Z,98466.93
2019-04-06T07:21:57.870Z,98476.64
2019-04-06T07:24:26.350Z,98476.39
2019-04-06T07:26:54.842Z,98470.92
2019-04-06T07:29:23.430Z,98467.26
2019-04-06T07:31:51.843Z,98472.35
2019-04-06T07:34:20.248Z,98466.88
2019-04-06T07:36:48.940Z,98468.56
2019-04-06T07:39:17.358Z,98466.59
2019-04-06T07:41:45.859Z,98467.45
2019-04-06T07:44:14.453Z,98465.36
2019-04-06T07:46:42.963Z,98467.08
2019-04-06T07:49:11.370Z,98473.12
2019-04-06T07:51:39.771Z,98468.51
2019-04-06T07:54:08.348Z,98471.88
2019-04-06T07:56:36.818Z,98464.59
2019-04-06T07:59:05.235Z,98467.02
2019-04-06T08:01:33.782Z,98464.08
2019-04-06T08:04:02.402Z,98474.52
2019-04-06T08:06:30.910Z,98467.20
2019-04-06T08:08:59.317Z,98466.12
2019-04-06T08:11:27.909Z,98468.63
2019-04-06T08:13:56.315Z,98466.69
2019-04-06T08:16:24.870Z,98470.06
2019-04-06T08:18:53.276Z,98475.16
2019-04-06T08:21:21.727Z,98468.81
2019-04-06T08:23:50.134Z,98474.89
2019-04-06T08:26:18.582Z,98472.09
2019-04-06T08:28:46.999Z,98474.64
2019-04-06T08:31:15.464Z,98470.97
2019-04-06T08:33:44.042Z,98467.31
2019-04-06T08:36:12.460Z,98469.00
2019-04-06T08:38:40.957Z,98468.04
2019-04-06T08:41:09.401Z,98462.56
2019-04-06T08:43:37.938Z,98467.05
2019-04-06T08:46:06.444Z,98470.42
2019-04-06T08:48:34.886Z,98474.82
2019-04-06T08:51:03.327Z,98464.94
2019-04-06T08:53:31.746Z,98458.63
2019-04-06T08:56:00.187Z,98454.11
2019-04-06T08:58:28.603Z,98455.80
2019-04-06T09:00:57.116Z,98456.66
2019-04-06T09:03:25.586Z,98452.16
2019-04-06T09:05:54.031Z,98455.53
2019-04-06T09:08:22.500Z,98452.73
2019-04-06T09:10:52.274Z,98455.27
2019-04-06T09:13:21.018Z,98454.16
2019-04-06T09:15:49.549Z,98455.71
2019-04-06T09:18:17.930Z,98458.25
2019-04-06T09:20:47.077Z,98452.77
2019-04-06T09:23:15.552Z,98455.31
2019-04-06T09:25:43.956Z,98455.05
2019-04-06T09:28:12.363Z,98448.58
2019-04-06T09:30:40.930Z,98444.64
2019-04-06T09:33:09.353Z,98442.53
2019-04-06T09:35:37.916Z,98442.40
2019-04-06T09:38:07.983Z,98437.64
2019-04-06T09:40:36.391Z,98441.04
2019-04-06T09:43:04.866Z,98442.45
2019-04-06T09:45:34.928Z,98442.06
2019-04-06T09:48:07.965Z,98441.62
2019-04-06T09:50:54.226Z,98443.17
2019-04-06T09:53:24.272Z,98445.72
2019-04-06T09:55:57.365Z,98446.45
2019-04-06T09:58:33.546Z,98448.13
2019-04-06T10:01:03.691Z,98448.13
2019-04-06T10:03:39.179Z,98448.13
2019-04-06T10:06:18.026Z,98452.63
2019-04-06T10:08:56.858Z,98447.27
2019-04-06T10:11:32.957Z,98445.59
2019-04-06T10:14:03.037Z,98440.23
2019-04-06T10:16:39.311Z,98434.88
2019-04-06T10:19:12.191Z,98436.56
2019-04-06T10:22:00.764Z,98444.45
2019-04-06T10:24:47.034Z,98453.48
2019-04-06T10:27:19.706Z,98464.06
2019-04-06T10:29:50.295Z,98460.53
2019-04-06T10:32:23.552Z,98462.22
2019-04-06T10:35:02.880Z,98463.80
2019-04-06T10:37:32.939Z,98466.31
2019-04-06T10:40:11.646Z,98461.67
2019-04-06T10:42:54.080Z,98456.32
2019-04-06T10:45:24.237Z,98450.23
2019-04-06T10:47:54.286Z,98459.13
2019-04-06T10:50:30.344Z,98447.56
2019-04-06T10:53:00.385Z,98446.73
2019-04-06T10:55:33.144Z,98447.73
2019-04-06T10:58:19.254Z,98450.41
2019-04-06T11:00:51.866Z,98443.33
2019-04-06T11:03:24.704Z,98443.33
2019-04-06T11:06:10.728Z,98445.87
2019-04-06T11:08:40.772Z,98454.05
2019-04-06T11:11:22.804Z,98444.33
2019-04-06T11:14:10.865Z,98444.33
2019-04-06T11:16:52.613Z,98441.64
2019-04-06T11:19:31.682Z,98443.63
2019-04-06T11:22:01.718Z,98431.20
2019-04-06T11:24:31.771Z,98440.23
2019-04-06T11:27:04.798Z,98440.23
2019-04-06T11:29:34.988Z,98434.88
2019-04-06T11:32:07.772Z,98437.69
2019-04-06T11:34:46.783Z,98443.05
2019-04-06T11:37:33.366Z,98446.58
2019-04-06T11:40:15.538Z,98442.22
2019-04-06T11:42:51.316Z,98437.82
2019-04-06T11:45:39.583Z,98428.10
2019-04-06T11:48:25.803Z,98417.39
2019-04-06T11:51:11.989Z,98408.66
2019-04-06T11:53:42.016Z,98403.31
2019-04-06T11:56:30.312Z,98406.95
2019-04-06T11:59:16.923Z,98408.80
2019-04-06T12:01:52.724Z,98417.66
2019-04-06T12:04:31.394Z,98416.97
2019-04-06T12:07:04.338Z,98422.32
2019-04-06T12:09:34.737Z,98407.25
2019-04-06T12:12:09.622Z,98401.89
2019-04-06T12:14:51.893Z,98405.53
2019-04-06T12:17:22.211Z,98406.53
2019-04-06T12:19:52.360Z,98404.84
2019-04-06T12:22:28.372Z,98396.94
2019-04-06T12:25:04.630Z,98401.57
2019-04-06T12:27:50.899Z,98399.89
2019-04-06T12:30:36.092Z,98406.37
2019-04-06T12:33:01.679Z,98402.97
2019-04-06T12:35:34.884Z,98401.25
2019-04-06T12:38:21.290Z,98404.92
2019-04-06T12:41:07.591Z,98386.31
2019-04-06T12:43:43.722Z,98385.62
2019-04-06T12:46:16.451Z,98398.14
2019-04-06T12:48:53.218Z,98396.46
2019-04-06T12:51:23.579Z,98394.91
2019-04-06T12:54:05.332Z,98407.44
2019-04-06T12:56:38.070Z,98411.23
2019-04-06T12:59:14.149Z,98417.58
2019-04-06T13:01:44.212Z,98428.42
2019-04-06T13:04:22.866Z,98422.34
2019-04-06T13:06:55.769Z,98425.15
2019-04-06T13:09:26.271Z,98431.63
2019-04-06T13:12:05.740Z,98448.67
2019-04-06T13:14:51.111Z,98446.98
2019-04-06T13:17:21.192Z,98445.43
2019-04-06T13:19:51.390Z,98448.37
2019-04-06T13:22:27.728Z,98458.21
2019-04-06T13:24:57.789Z,98459.20
2019-04-06T13:27:46.280Z,98457.52
2019-04-06T13:30:28.698Z,98461.15
2019-04-06T13:32:58.945Z,98459.46
2019-04-06T13:35:29.017Z,98464.81
2019-04-06T13:38:15.217Z,98466.80
2019-04-06T13:41:01.429Z,98465.07
2019-04-06T13:43:37.503Z,98469.59
2019-04-06T13:46:22.608Z,98477.75
2019-04-06T13:48:55.478Z,98473.39
2019-04-06T13:51:41.947Z,98470.84
2019-04-06T13:54:28.998Z,98472.66
2019-04-06T13:57:05.072Z,98473.66
2019-04-06T13:59:51.614Z,98474.64
2019-04-06T14:02:37.804Z,98467.56
2019-04-06T14:05:08.642Z,98471.23
2019-04-06T14:07:56.644Z,98462.51
2019-04-06T14:10:40.485Z,98465.31
2019-04-06T14:13:10.538Z,98468.12
2019-04-06T14:15:46.594Z,98468.37
2019-04-06T14:18:25.538Z,98463.02
2019-04-06T14:21:01.642Z,98463.28
2019-04-06T14:23:40.747Z,98460.77
2019-04-06T14:26:11.112Z,98464.40
2019-04-06T14:28:43.956Z,98457.36
2019-04-06T14:31:27.391Z,98461.85
2019-04-06T14:33:57.267Z,98465.52
2019-04-06T14:36:27.430Z,98463.95
2019-04-06T14:39:03.760Z,98467.62
2019-04-06T14:41:50.158Z,98462.27
2019-04-06T14:44:35.340Z,98452.69
2019-04-06T14:47:08.111Z,98449.16
2019-04-06T14:49:41.290Z,98446.60
2019-04-06T14:52:17.554Z,98437.75
2019-04-06T14:54:56.617Z,98429.83
2019-04-06T14:57:29.675Z,98428.11
2019-04-06T15:00:16.338Z,98420.25
2019-04-06T15:02:52.571Z,98420.38
2019-04-06T15:05:22.695Z,98417.83
2019-04-06T15:07:59.000Z,98425.13
2019-04-06T15:10:32.026Z,98425.25
2019-04-06T15:13:02.081Z,98426.23
2019-04-06T15:15:32.135Z,98440.59
2019-04-06T15:18:02.344Z,98441.58
2019-04-06T15:20:38.128Z,98446.19
2019-04-06T15:23:24.814Z,98448.16
2019-04-06T15:26:10.084Z,98453.52
2019-04-06T15:28:40.159Z,98454.59
2019-04-06T15:31:13.358Z,98448.42
2019-04-06T15:33:43.474Z,98460.09
2019-04-06T15:36:22.983Z,98463.73
2019-04-06T15:39:09.571Z,98450.48
2019-04-06T15:41:54.349Z,98451.72
2019-04-06T15:44:14.526Z,98456.37
2019-04-06T15:47:01.033Z,98462.95
2019-04-06T15:49:37.415Z,98455.91
2019-04-06T15:52:14.245Z,98463.20
2019-04-06T15:54:59.830Z,98460.65
2019-04-06T15:57:35.995Z,98456.29
2019-04-06T16:00:08.458Z,98453.62
2019-04-06T16:02:56.751Z,98447.41
2019-04-06T16:05:29.689Z,98441.24
2019-04-06T16:07:59.748Z,98443.78
2019-04-06T16:10:29.808Z,98435.89
2019-04-06T16:13:00.243Z,98426.03
2019-04-06T16:15:39.532Z,98418.88
2019-04-06T16:18:12.601Z,98411.84
2019-04-06T16:20:59.622Z,98415.50
2019-04-06T16:23:32.445Z,98409.17
2019-04-06T16:26:11.112Z,98403.83
2019-04-06T16:28:49.685Z,98405.52
2019-04-06T16:31:22.792Z,98406.50
2019-04-06T16:34:09.199Z,98402.97
2019-04-06T16:36:51.447Z,98410.16
2019-04-06T16:39:21.729Z,98411.97
2019-04-06T16:41:57.836Z,98408.44
2019-04-06T16:44:27.982Z,98404.94
2019-04-06T16:47:13.662Z,98411.11
2019-04-06T16:49:49.706Z,98403.22
2019-04-06T16:52:28.983Z,98403.22
2019-04-06T16:55:15.044Z,98400.55
2019-04-06T16:57:45.145Z,98400.70
2019-04-06T17:00:30.407Z,98406.05
2019-04-06T17:03:03.423Z,98406.05
2019-04-06T17:05:33.968Z,98405.19
2019-04-06T17:08:20.408Z,98398.98
2019-04-06T17:10:53.014Z,98402.64
2019-04-06T17:13:37.833Z,98409.67
2019-04-06T17:16:24.511Z,98410.66
2019-04-06T17:19:00.655Z,98414.19
2019-04-06T17:21:49.051Z,98410.66
2019-04-06T17:24:19.109Z,98418.80
2019-04-06T17:26:51.992Z,98425.13
2019-04-06T17:29:22.070Z,98415.30
2019-04-06T17:31:52.618Z,98410.91
2019-04-06T17:34:22.793Z,98405.56
2019-04-06T17:36:52.845Z,98410.08
2019-04-06T17:39:23.151Z,98418.92
2019-04-06T17:41:53.300Z,98418.23
2019-04-06T17:44:23.390Z,98419.05
2019-04-06T17:47:08.620Z,98412.75
2019-04-06T17:49:41.845Z,98409.22
2019-04-06T17:52:24.837Z,98410.20
2019-04-06T17:54:54.895Z,98411.89
2019-04-06T17:57:24.945Z,98418.92
2019-04-06T18:00:11.342Z,98409.22
2019-04-06T18:02:49.480Z,98422.58
2019-04-06T18:05:23.524Z,98403.75
2019-04-06T18:07:59.388Z,98414.44
2019-04-06T18:10:45.810Z,98408.23
2019-04-06T18:13:22.010Z,98408.23
2019-04-06T18:15:51.219Z,98408.23
2019-04-06T18:18:20.016Z,98409.09
2019-04-06T18:20:48.449Z,98404.73
2019-04-06T18:23:18.759Z,98397.55
2019-04-06T18:25:47.290Z,98408.23
2019-04-06T18:28:16.026Z,98393.19
2019-04-06T18:30:46.119Z,98401.20
2019-04-06T18:33:16.213Z,98402.06
2019-04-06T18:35:44.947Z,98401.20
2019-04-06T18:38:17.669Z,98401.20
2019-04-06T18:40:46.124Z,98389.66
2019-04-06T18:43:14.528Z,98380.81
2019-04-06T18:45:43.296Z,98383.48
2019-04-06T18:48:11.796Z,98386.16
2019-04-06T18:50:40.636Z,98394.17
2019-04-06T18:53:09.247Z,98386.16
2019-04-06T18:55:37.929Z,98395.86
2019-04-06T18:58:11.265Z,98389.66
2019-04-06T19:00:36.485Z,98386.16
2019-04-06T19:03:12.066Z,98383.48
2019-04-06T19:05:35.223Z,98386.16
2019-04-06T19:08:05.262Z,98389.66
2019-04-06T19:10:33.900Z,98398.66
2019-04-06T19:13:02.320Z,98405.69
2019-04-06T19:15:30.736Z,98399.52
2019-04-06T19:17:59.256Z,98394.17
2019-04-06T19:20:29.275Z,98383.48
2019-04-06T19:22:57.885Z,98387.14
2019-04-06T19:25:26.316Z,98387.97
2019-04-06T19:27:55.146Z,98388.83
2019-04-06T19:30:23.826Z,98392.48
2019-04-06T19:32:52.368Z,98387.14
2019-04-06T19:35:20.906Z,98384.47
2019-04-06T19:37:49.337Z,98378.27
2019-04-06T19:40:18.136Z,98369.39
2019-04-06T19:42:46.573Z,98377.41
2019-04-06T19:45:15.110Z,98373.05
2019-04-06T19:47:43.678Z,98373.91
2019-04-06T19:50:12.172Z,98382.05
2019-04-06T19:52:40.611Z,98389.95
2019-04-06T19:55:09.113Z,98383.73
2019-04-06T19:57:37.539Z,98383.73
2019-04-06T20:00:06.812Z,98383.73
2019-04-06T20:02:35.408Z,98371.37
2019-04-06T20:05:06.007Z,98362.37
2019-04-06T20:07:34.428Z,98367.71
2019-04-06T20:10:02.927Z,98378.40
2019-04-06T20:12:31.347Z,98383.73
2019-04-06T20:14:59.806Z,98384.73
2019-04-06T20:17:28.843Z,98369.69
2019-04-06T20:19:57.526Z,98376.70
2019-04-06T20:22:26.231Z,98388.23
2019-04-06T20:24:54.661Z,98379.51
2019-04-06T20:27:23.285Z,98376.70
2019-04-06T20:29:51.908Z,98381.20
2019-04-06T20:32:20.308Z,98382.05
2019-04-06T20:34:49.299Z,98367.01
2019-04-06T20:37:18.803Z,98362.49
2019-04-06T20:39:47.331Z,98367.71
2019-04-06T20:42:15.752Z,98367.71
2019-04-06T20:44:44.161Z,98369.39
2019-04-06T20:47:12.585Z,98364.91
2019-04-06T20:49:41.587Z,98363.09
2019-04-06T20:52:10.645Z,98355.08
2019-04-06T20:54:39.543Z,98361.26
2019-04-06T20:57:08.733Z,98353.24
2019-04-06T20:59:37.311Z,98355.91
2019-04-06T21:02:05.752Z,98360.43
2019-04-06T21:04:34.191Z,98358.58
2019-04-06T21:07:02.609Z,98361.26
2019-04-06T21:09:31.756Z,98359.57
2019-04-06T21:12:00.346Z,98364.91
2019-04-06T21:14:28.727Z,98367.71
2019-04-06T21:16:57.229Z,98359.70
2019-04-06T21:19:26.045Z,98352.66
2019-04-06T21:21:54.702Z,98349.99
2019-04-06T21:24:23.500Z,98359.82
2019-04-06T21:26:52.262Z,98361.67
2019-04-06T21:29:21.732Z,98352.92
2019-04-06T21:31:50.871Z,98351.11
2019-04-06T21:34:19.438Z,98353.91
2019-04-06T21:36:48.206Z,98343.72
2019-04-06T21:39:16.734Z,98347.83
2019-04-06T21:41:45.188Z,98350.50
2019-04-06T21:44:13.585Z,98349.67
2019-04-06T21:46:42.073Z,98343.72
2019-04-06T21:49:10.478Z,98354.41
2019-04-06T21:51:39.140Z,98345.69
2019-04-06T21:54:07.848Z,98344.83
2019-04-06T21:56:36.473Z,98351.16
2019-04-06T21:59:05.367Z,98347.63
2019-04-06T22:01:34.263Z,98346.80
2019-04-06T22:04:03.204Z,98345.95
2019-04-06T22:06:31.695Z,98343.39
2019-04-06T22:09:00.390Z,98342.57
2019-04-06T22:11:28.904Z,98347.91
2019-04-06T22:13:57.862Z,98341.71
2019-04-06T22:16:27.220Z,98338.15
2019-04-06T22:18:55.663Z,98336.46
2019-04-06T22:21:24.075Z,98339.99
2019-04-06T22:23:52.490Z,98335.77
2019-04-06T22:26:20.958Z,98337.70
2019-04-06T22:28:49.391Z,98349.23
2019-04-06T22:31:17.805Z,98348.38
2019-04-06T22:33:46.327Z,98352.98
2019-04-06T22:36:15.121Z,98348.50
2019-04-06T22:38:43.624Z,98341.48
2019-04-06T22:41:12.061Z,98348.63
2019-04-06T22:43:41.168Z,98343.41
2019-04-06T22:46:12.211Z,98340.74
2019-04-06T22:48:40.370Z,98339.92
2019-04-06T22:51:10.160Z,98345.25
2019-04-06T22:53:38.685Z,98339.92
2019-04-06T22:56:07.188Z,98335.53
2019-04-06T22:58:35.769Z,98332.03
2019-04-06T23:01:14.625Z,98336.52
2019-04-06T23:03:57.155Z,98332.16
2019-04-06T23:06:30.231Z,98337.50
2019-04-06T23:08:58.641Z,98333.97
2019-04-06T23:11:27.556Z,98322.58
2019-04-06T23:13:56.325Z,98324.39
2019-04-06T23:16:24.971Z,98312.89
2019-04-06T23:18:53.750Z,98312.03
2019-04-06T23:21:22.510Z,98317.36
2019-04-06T23:23:50.922Z,98312.28
2019-04-06T23:26:19.333Z,98306.81
2019-04-06T23:28:47.746Z,98313.14
2019-04-06T23:31:16.487Z,98313.14
2019-04-06T23:33:45.063Z,98306.94
2019-04-06T23:36:13.495Z,98307.92
2019-04-06T23:38:41.904Z,98314.25
2019-04-06T23:41:10.484Z,98307.06
2019-04-06T23:43:38.915Z,98322.25
2019-04-06T23:46:07.541Z,98312.53
2019-04-06T23:48:36.442Z,98311.70
2019-04-06T23:51:05.250Z,98304.67
2019-04-06T23:53:33.762Z,98314.49
2019-04-06T23:56:02.805Z,98318.97
2019-04-06T23:58:31.426Z,98315.47
